sensor_id;sensor_type;location;lat;lon;timestamp;pressure;altitude;pressure_sealevel;temperature;humidity
20013;BME280;10167;42.852;23.042;2022-08-03T00:01:15;94901.00;;;17.53;100.00
20013;BME280;10167;42.852;23.042;2022-08-03T00:08:42;94901.00;;;17.53;100.00
20013;BME280;10167;42.852;23.042;2022-08-03T00:11:09;94908.00;;;17.49;100.00
20013;BME280;10167;42.852;23.042;2022-08-03T00:13:37;94901.06;;;17.43;100.00
20013;BME280;10167;42.852;23.042;2022-08-03T00:16:04;94903.53;;;17.34;100.00
20013;BME280;10167;42.852;23.042;2022-08-03T00:18:32;94901.16;;;17.28;100.00
20013;BME280;10167;42.852;23.042;2022-08-03T00:21:00;94896.13;;;17.21;100.00
20013;BME280;10167;42.852;23.042;2022-08-03T00:23:27;94902.28;;;17.22;100.00
20013;BME280;10167;42.852;23.042;2022-08-03T00:30:53;94906.09;;;17.11;100.00
20013;BME280;10167;42.852;23.042;2022-08-03T00:33:22;94899.44;;;17.08;100.00
20013;BME280;10167;42.852;23.042;2022-08-03T00:35:50;94885.78;;;17.10;100.00
20013;BME280;10167;42.852;23.042;2022-08-03T00:38:18;94899.13;;;17.15;100.00
20013;BME280;10167;42.852;23.042;2022-08-03T00:40:45;94891.38;;;17.13;100.00
20013;BME280;10167;42.852;23.042;2022-08-03T00:43:13;94888.13;;;17.16;100.00
20013;BME280;10167;42.852;23.042;2022-08-03T00:45:42;94900.69;;;17.21;100.00
20013;BME280;10167;42.852;23.042;2022-08-03T00:53:13;94903.09;;;17.22;100.00
20013;BME280;10167;42.852;23.042;2022-08-03T00:55:44;94904.72;;;17.18;100.00
20013;BME280;10167;42.852;23.042;2022-08-03T00:58:13;94901.00;;;17.14;100.00
20013;BME280;10167;42.852;23.042;2022-08-03T01:00:41;94899.13;;;17.15;100.00
20013;BME280;10167;42.852;23.042;2022-08-03T01:03:09;94895.69;;;17.09;100.00
20013;BME280;10167;42.852;23.042;2022-08-03T01:05:43;94897.28;;;17.10;100.00
20013;BME280;10167;42.852;23.042;2022-08-03T01:08:19;94896.47;;;17.15;100.00
20013;BME280;10167;42.852;23.042;2022-08-03T01:15:57;94891.53;;;17.27;100.00
20013;BME280;10167;42.852;23.042;2022-08-03T01:18:31;94901.22;;;17.23;100.00
20013;BME280;10167;42.852;23.042;2022-08-03T01:21:06;94893.81;;;17.10;100.00
20013;BME280;10167;42.852;23.042;2022-08-03T01:23:53;94903.19;;;17.07;100.00
20013;BME280;10167;42.852;23.042;2022-08-03T01:26:47;94898.47;;;17.33;100.00
20013;BME280;10167;42.852;23.042;2022-08-03T01:29:45;94895.53;;;17.29;100.00
20013;BME280;10167;42.852;23.042;2022-08-03T01:37:21;94889.16;;;16.81;100.00
20013;BME280;10167;42.852;23.042;2022-08-03T01:39:52;94890.78;;;16.77;100.00
20013;BME280;10167;42.852;23.042;2022-08-03T01:42:23;94899.84;;;16.81;100.00
20013;BME280;10167;42.852;23.042;2022-08-03T01:44:52;94892.25;;;16.98;100.00
20013;BME280;10167;42.852;23.042;2022-08-03T01:47:21;94902.09;;;17.08;100.00
20013;BME280;10167;42.852;23.042;2022-08-03T01:49:51;94908.31;;;16.93;100.00
20013;BME280;10167;42.852;23.042;2022-08-03T01:55:59;94900.75;;;16.51;100.00
20013;BME280;10167;42.852;23.042;2022-08-03T01:58:28;94896.50;;;16.45;100.00
20013;BME280;10167;42.852;23.042;2022-08-03T02:01:00;94902.69;;;16.36;100.00
20013;BME280;10167;42.852;23.042;2022-08-03T02:03:29;94899.19;;;16.40;100.00
20013;BME280;10167;42.852;23.042;2022-08-03T02:05:58;94893.56;;;16.37;100.00
20013;BME280;10167;42.852;23.042;2022-08-03T02:08:47;94898.41;;;16.29;100.00
20013;BME280;10167;42.852;23.042;2022-08-03T02:11:16;94896.56;;;16.20;100.00
20013;BME280;10167;42.852;23.042;2022-08-03T02:18:48;94888.31;;;16.11;100.00
20013;BME280;10167;42.852;23.042;2022-08-03T02:21:16;94886.19;;;16.08;100.00
20013;BME280;10167;42.852;23.042;2022-08-03T02:24:05;94893.13;;;16.09;100.00
20013;BME280;10167;42.852;23.042;2022-08-03T02:26:34;94895.25;;;16.17;100.00
20013;BME280;10167;42.852;23.042;2022-08-03T02:29:10;94889.63;;;16.24;100.00
20013;BME280;10167;42.852;23.042;2022-08-03T02:31:41;94889.63;;;16.24;100.00
20013;BME280;10167;42.852;23.042;2022-08-03T02:34:13;94899.47;;;16.28;100.00
20013;BME280;10167;42.852;23.042;2022-08-03T02:41:47;94897.84;;;16.43;100.00
20013;BME280;10167;42.852;23.042;2022-08-03T02:44:22;94890.09;;;16.41;100.00
20013;BME280;10167;42.852;23.042;2022-08-03T02:46:56;94898.69;;;16.33;100.00
20013;BME280;10167;42.852;23.042;2022-08-03T02:49:26;94894.69;;;16.20;100.00
20013;BME280;10167;42.852;23.042;2022-08-03T02:52:15;94889.94;;;15.97;100.00
20013;BME280;10167;42.852;23.042;2022-08-03T02:54:45;94903.59;;;15.90;100.00
20013;BME280;10167;42.852;23.042;2022-08-03T03:02:30;94907.03;;;15.81;100.00
20013;BME280;10167;42.852;23.042;2022-08-03T03:04:58;94903.31;;;15.87;100.00
20013;BME280;10167;42.852;23.042;2022-08-03T03:07:47;94913.72;;;15.98;100.00
20013;BME280;10167;42.852;23.042;2022-08-03T03:10:20;94908.59;;;16.17;100.00
20013;BME280;10167;42.852;23.042;2022-08-03T03:12:50;94911.78;;;16.14;100.00
20013;BME280;10167;42.852;23.042;2022-08-03T03:15:18;94911.84;;;15.99;100.00
20013;BME280;10167;42.852;23.042;2022-08-03T03:20:27;94907.84;;;15.86;100.00
20013;BME280;10167;42.852;23.042;2022-08-03T03:22:58;94913.75;;;15.78;100.00
20013;BME280;10167;42.852;23.042;2022-08-03T03:25:27;94908.13;;;15.80;100.00
20013;BME280;10167;42.852;23.042;2022-08-03T03:27:57;94911.84;;;15.84;100.00
20013;BME280;10167;42.852;23.042;2022-08-03T03:30:26;94911.34;;;15.77;100.00
20013;BME280;10167;42.852;23.042;2022-08-03T03:32:53;94911.59;;;15.65;100.00
20013;BME280;10167;42.852;23.042;2022-08-03T03:35:21;94919.63;;;15.65;100.00
20013;BME280;10167;42.852;23.042;2022-08-03T03:42:53;94927.84;;;15.53;100.00
20013;BME280;10167;42.852;23.042;2022-08-03T03:45:21;94928.44;;;15.55;100.00
20013;BME280;10167;42.852;23.042;2022-08-03T03:47:49;94926.28;;;15.63;100.00
20013;BME280;10167;42.852;23.042;2022-08-03T03:50:17;94936.44;;;15.66;100.00
20013;BME280;10167;42.852;23.042;2022-08-03T03:52:45;94929.47;;;15.59;100.00
20013;BME280;10167;42.852;23.042;2022-08-03T03:55:15;94934.31;;;15.57;100.00
20013;BME280;10167;42.852;23.042;2022-08-03T03:57:43;94935.63;;;15.55;100.00
20013;BME280;10167;42.852;23.042;2022-08-03T04:05:14;94939.88;;;15.96;100.00
20013;BME280;10167;42.852;23.042;2022-08-03T04:08:02;94932.09;;;16.15;100.00
20013;BME280;10167;42.852;23.042;2022-08-03T04:10:55;94927.81;;;16.34;100.00
20013;BME280;10167;42.852;23.042;2022-08-03T04:13:32;94934.25;;;16.23;100.00
20013;BME280;10167;42.852;23.042;2022-08-03T04:16:01;94927.28;;;16.17;100.00
20013;BME280;10167;42.852;23.042;2022-08-03T04:18:32;94933.16;;;16.14;100.00
20013;BME280;10167;42.852;23.042;2022-08-03T04:21:03;94940.13;;;16.15;100.00
20013;BME280;10167;42.852;23.042;2022-08-03T04:28:36;94930.44;;;16.40;100.00
20013;BME280;10167;42.852;23.042;2022-08-03T04:31:05;94940.88;;;16.41;100.00
20013;BME280;10167;42.852;23.042;2022-08-03T04:33:35;94942.75;;;16.41;100.00
20013;BME280;10167;42.852;23.042;2022-08-03T04:36:06;94952.06;;;16.63;100.00
20013;BME280;10167;42.852;23.042;2022-08-03T04:38:39;94948.50;;;16.83;100.00
20013;BME280;10167;42.852;23.042;2022-08-03T04:41:10;94946.78;;;17.13;100.00
20013;BME280;10167;42.852;23.042;2022-08-03T04:43:40;94956.34;;;17.24;100.00
20013;BME280;10167;42.852;23.042;2022-08-03T04:51:07;94969.84;;;17.48;100.00
20013;BME280;10167;42.852;23.042;2022-08-03T04:53:37;94956.63;;;17.17;100.00
20013;BME280;10167;42.852;23.042;2022-08-03T04:56:05;94965.25;;;17.53;100.00
20013;BME280;10167;42.852;23.042;2022-08-03T04:58:33;94967.91;;;17.53;100.00
20013;BME280;10167;42.852;23.042;2022-08-03T05:01:00;94977.25;;;17.66;100.00
20013;BME280;10167;42.852;23.042;2022-08-03T05:03:28;94967.38;;;17.95;100.00
20013;BME280;10167;42.852;23.042;2022-08-03T05:05:57;94972.22;;;18.22;100.00
20013;BME280;10167;42.852;23.042;2022-08-03T05:13:32;94982.06;;;18.61;100.00
20013;BME280;10167;42.852;23.042;2022-08-03T05:16:00;94973.25;;;18.84;100.00
20013;BME280;10167;42.852;23.042;2022-08-03T05:18:28;94974.75;;;18.90;100.00
20013;BME280;10167;42.852;23.042;2022-08-03T05:20:55;94984.44;;;19.10;100.00
20013;BME280;10167;42.852;23.042;2022-08-03T05:23:23;94990.88;;;19.33;100.00
20013;BME280;10167;42.852;23.042;2022-08-03T05:25:50;94990.94;;;19.46;100.00
20013;BME280;10167;42.852;23.042;2022-08-03T05:28:18;94988.28;;;19.65;100.00
20013;BME280;10167;42.852;23.042;2022-08-03T05:35:44;94991.47;;;20.05;100.00
20013;BME280;10167;42.852;23.042;2022-08-03T05:38:30;94994.09;;;20.23;100.00
20013;BME280;10167;42.852;23.042;2022-08-03T05:41:02;95000.56;;;20.41;100.00
20013;BME280;10167;42.852;23.042;2022-08-03T05:43:50;95002.69;;;20.58;100.00
20013;BME280;10167;42.852;23.042;2022-08-03T05:46:19;95004.00;;;20.74;100.00
20013;BME280;10167;42.852;23.042;2022-08-03T05:48:47;95004.78;;;20.88;100.00
20013;BME280;10167;42.852;23.042;2022-08-03T05:51:15;95006.59;;;20.93;100.00
20013;BME280;10167;42.852;23.042;2022-08-03T05:58:47;95012.09;;;21.43;100.00
20013;BME280;10167;42.852;23.042;2022-08-03T06:01:15;95019.41;;;21.28;100.00
20013;BME280;10167;42.852;23.042;2022-08-03T06:03:43;95017.25;;;21.66;100.00
20013;BME280;10167;42.852;23.042;2022-08-03T06:06:11;95021.00;;;21.79;100.00
20013;BME280;10167;42.852;23.042;2022-08-03T06:08:40;95012.91;;;21.79;100.00
20013;BME280;10167;42.852;23.042;2022-08-03T06:11:07;95012.06;;;22.06;100.00
20013;BME280;10167;42.852;23.042;2022-08-03T06:13:35;95020.50;;;22.13;100.00
20013;BME280;10167;42.852;23.042;2022-08-03T06:20:59;95026.03;;;22.53;100.00
20013;BME280;10167;42.852;23.042;2022-08-03T06:23:45;95015.94;;;22.67;100.00
20013;BME280;10167;42.852;23.042;2022-08-03T06:26:23;95020.47;;;22.80;100.00
20013;BME280;10167;42.852;23.042;2022-08-03T06:28:51;95026.94;;;23.01;100.00
20013;BME280;10167;42.852;23.042;2022-08-03T06:31:22;95021.53;;;23.01;100.00
20013;BME280;10167;42.852;23.042;2022-08-03T06:33:51;95030.28;;;23.07;100.00
20013;BME280;10167;42.852;23.042;2022-08-03T06:41:57;95028.91;;;23.66;100.00
20013;BME280;10167;42.852;23.042;2022-08-03T06:44:25;95030.63;;;23.62;100.00
20013;BME280;10167;42.852;23.042;2022-08-03T06:46:52;95028.94;;;23.92;100.00
20013;BME280;10167;42.852;23.042;2022-08-03T06:49:20;95024.94;;;24.15;100.00
20013;BME280;10167;42.852;23.042;2022-08-03T06:51:48;95033.72;;;24.04;100.00
20013;BME280;10167;42.852;23.042;2022-08-03T06:54:34;95019.09;;;24.13;100.00
20013;BME280;10167;42.852;23.042;2022-08-03T06:57:04;95016.22;;;24.36;100.00
20013;BME280;10167;42.852;23.042;2022-08-03T07:04:38;95016.31;;;24.65;100.00
20013;BME280;10167;42.852;23.042;2022-08-03T07:07:05;95026.31;;;24.82;100.00
20013;BME280;10167;42.852;23.042;2022-08-03T07:09:33;95022.63;;;24.95;100.00
20013;BME280;10167;42.852;23.042;2022-08-03T07:12:01;95025.97;;;25.01;100.00
20013;BME280;10167;42.852;23.042;2022-08-03T07:14:30;95022.97;;;25.31;100.00
20013;BME280;10167;42.852;23.042;2022-08-03T07:16:57;95024.00;;;25.48;100.00
20013;BME280;10167;42.852;23.042;2022-08-03T07:19:25;95024.59;;;25.53;100.00
20013;BME280;10167;42.852;23.042;2022-08-03T07:26:56;95022.56;;;26.21;100.00
20013;BME280;10167;42.852;23.042;2022-08-03T07:29:24;95014.41;;;26.42;99.92
20013;BME280;10167;42.852;23.042;2022-08-03T07:31:51;95015.16;;;26.51;97.77
20013;BME280;10167;42.852;23.042;2022-08-03T07:34:19;95016.41;;;26.66;99.59
20013;BME280;10167;42.852;23.042;2022-08-03T07:36:47;95016.00;;;26.88;96.61
20013;BME280;10167;42.852;23.042;2022-08-03T07:39:14;95015.41;;;27.03;95.63
20013;BME280;10167;42.852;23.042;2022-08-03T07:41:44;95020.84;;;27.03;93.34
20013;BME280;10167;42.852;23.042;2022-08-03T07:49:16;95014.38;;;26.96;94.30
20013;BME280;10167;42.852;23.042;2022-08-03T07:51:44;95020.78;;;26.91;95.69
20013;BME280;10167;42.852;23.042;2022-08-03T07:54:11;95015.97;;;27.09;94.03
20013;BME280;10167;42.852;23.042;2022-08-03T07:56:39;95019.59;;;27.13;93.77
20013;BME280;10167;42.852;23.042;2022-08-03T07:59:06;95024.69;;;27.15;93.42
20013;BME280;10167;42.852;23.042;2022-08-03T08:01:34;95019.16;;;27.35;93.66
20013;BME280;10167;42.852;23.042;2022-08-03T08:04:03;95026.75;;;27.54;94.64
20013;BME280;10167;42.852;23.042;2022-08-03T08:11:34;95024.00;;;27.91;93.92
20013;BME280;10167;42.852;23.042;2022-08-03T08:14:06;95022.72;;;28.12;93.65
20013;BME280;10167;42.852;23.042;2022-08-03T08:16:33;95023.66;;;28.04;89.33
20013;BME280;10167;42.852;23.042;2022-08-03T08:19:01;95016.66;;;28.59;87.76
20013;BME280;10167;42.852;23.042;2022-08-03T08:21:28;95016.56;;;28.83;87.86
20013;BME280;10167;42.852;23.042;2022-08-03T08:24:16;95019.59;;;29.10;85.91
20013;BME280;10167;42.852;23.042;2022-08-03T08:26:46;95023.03;;;29.22;82.43
20013;BME280;10167;42.852;23.042;2022-08-03T08:34:16;95004.38;;;29.24;78.46
20013;BME280;10167;42.852;23.042;2022-08-03T08:36:44;95012.00;;;29.35;80.16
20013;BME280;10167;42.852;23.042;2022-08-03T08:39:13;95009.22;;;29.47;76.62
20013;BME280;10167;42.852;23.042;2022-08-03T08:41:43;95016.72;;;29.50;78.99
20013;BME280;10167;42.852;23.042;2022-08-03T08:44:12;95009.06;;;29.55;81.86
20013;BME280;10167;42.852;23.042;2022-08-03T08:46:40;95008.91;;;29.83;79.37
20013;BME280;10167;42.852;23.042;2022-08-03T08:49:08;95004.94;;;29.96;73.98
20013;BME280;10167;42.852;23.042;2022-08-03T08:54:22;95001.50;;;30.19;73.40
20013;BME280;10167;42.852;23.042;2022-08-03T08:56:51;94999.44;;;30.31;71.22
20013;BME280;10167;42.852;23.042;2022-08-03T08:59:20;94997.13;;;30.53;69.60
20013;BME280;10167;42.852;23.042;2022-08-03T09:01:48;94996.44;;;30.56;70.84
20013;BME280;10167;42.852;23.042;2022-08-03T09:04:16;94990.53;;;30.54;70.28
20013;BME280;10167;42.852;23.042;2022-08-03T09:06:44;94983.50;;;30.76;66.23
20013;BME280;10167;42.852;23.042;2022-08-03T09:09:32;94988.22;;;30.98;61.29
20013;BME280;10167;42.852;23.042;2022-08-03T09:17:05;94976.41;;;30.94;59.96
20013;BME280;10167;42.852;23.042;2022-08-03T09:19:43;94977.31;;;30.79;61.19
20013;BME280;10167;42.852;23.042;2022-08-03T09:22:30;94972.91;;;31.16;69.41
20013;BME280;10167;42.852;23.042;2022-08-03T09:25:00;94976.47;;;31.43;66.31
20013;BME280;10167;42.852;23.042;2022-08-03T09:27:48;94983.00;;;31.35;62.13
20013;BME280;10167;42.852;23.042;2022-08-03T09:30:17;94985.91;;;31.46;60.02
20013;BME280;10167;42.852;23.042;2022-08-03T09:38:10;94973.81;;;31.73;59.10
20013;BME280;10167;42.852;23.042;2022-08-03T09:40:41;94970.69;;;32.01;61.67
20013;BME280;10167;42.852;23.042;2022-08-03T09:43:09;94975.63;;;32.52;64.02
20013;BME280;10167;42.852;23.042;2022-08-03T09:45:38;94973.28;;;32.84;66.10
20013;BME280;10167;42.852;23.042;2022-08-03T09:48:26;94972.63;;;32.64;61.38
20013;BME280;10167;42.852;23.042;2022-08-03T09:50:56;94972.47;;;32.16;59.30
20013;BME280;10167;42.852;23.042;2022-08-03T09:59:34;94965.38;;;31.32;62.86
20013;BME280;10167;42.852;23.042;2022-08-03T10:02:19;94967.19;;;31.02;66.44
20013;BME280;10167;42.852;23.042;2022-08-03T10:04:48;94967.41;;;30.71;67.10
20013;BME280;10167;42.852;23.042;2022-08-03T10:07:18;94957.56;;;30.47;68.76
20013;BME280;10167;42.852;23.042;2022-08-03T10:09:54;94959.44;;;30.43;70.52
20013;BME280;10167;42.852;23.042;2022-08-03T10:12:22;94959.47;;;30.23;67.84
20013;BME280;10167;42.852;23.042;2022-08-03T10:14:51;94960.25;;;30.24;73.73
20013;BME280;10167;42.852;23.042;2022-08-03T10:22:23;94963.00;;;30.24;68.66
20013;BME280;10167;42.852;23.042;2022-08-03T10:24:55;94959.53;;;29.92;71.26
20013;BME280;10167;42.852;23.042;2022-08-03T10:27:23;94951.44;;;29.76;69.31
20013;BME280;10167;42.852;23.042;2022-08-03T10:29:52;94961.53;;;29.41;72.54
20013;BME280;10167;42.852;23.042;2022-08-03T10:32:27;94964.19;;;29.21;75.32
20013;BME280;10167;42.852;23.042;2022-08-03T10:35:02;94962.78;;;28.96;76.35
20013;BME280;10167;42.852;23.042;2022-08-03T10:41:09;94972.34;;;28.46;77.58
20013;BME280;10167;42.852;23.042;2022-08-03T10:43:47;94971.13;;;28.44;81.25
20013;BME280;10167;42.852;23.042;2022-08-03T10:46:18;94964.69;;;28.36;82.54
20013;BME280;10167;42.852;23.042;2022-08-03T10:48:48;94962.78;;;28.25;85.80
20013;BME280;10167;42.852;23.042;2022-08-03T10:51:18;94958.63;;;28.15;87.97
20013;BME280;10167;42.852;23.042;2022-08-03T10:53:46;94963.88;;;28.08;85.96
20013;BME280;10167;42.852;23.042;2022-08-03T10:56:38;94956.75;;;27.91;88.44
20013;BME280;10167;42.852;23.042;2022-08-03T11:02:14;94949.03;;;27.29;100.00
20013;BME280;10167;42.852;23.042;2022-08-03T11:04:42;94948.81;;;26.97;100.00
20013;BME280;10167;42.852;23.042;2022-08-03T11:07:18;94946.31;;;27.04;100.00
20013;BME280;10167;42.852;23.042;2022-08-03T11:09:48;94943.56;;;26.80;100.00
20013;BME280;10167;42.852;23.042;2022-08-03T11:12:23;94941.63;;;26.81;100.00
20013;BME280;10167;42.852;23.042;2022-08-03T11:15:00;94941.56;;;27.01;100.00
20013;BME280;10167;42.852;23.042;2022-08-03T11:17:31;94937.38;;;27.04;100.00
20013;BME280;10167;42.852;23.042;2022-08-03T11:21:11;94940.66;;;26.97;97.44
20013;BME280;10167;42.852;23.042;2022-08-03T11:23:40;94946.53;;;27.11;90.36
20013;BME280;10167;42.852;23.042;2022-08-03T11:26:28;94941.22;;;27.27;95.02
20013;BME280;10167;42.852;23.042;2022-08-03T11:29:25;94934.19;;;27.26;90.30
20013;BME280;10167;42.852;23.042;2022-08-03T11:31:53;94934.31;;;27.94;91.06
20013;BME280;10167;42.852;23.042;2022-08-03T11:34:21;94937.13;;;28.53;86.82
20013;BME280;10167;42.852;23.042;2022-08-03T11:42:43;94925.31;;;29.09;83.79
20013;BME280;10167;42.852;23.042;2022-08-03T11:45:14;94926.25;;;28.53;83.93
20013;BME280;10167;42.852;23.042;2022-08-03T11:47:42;94927.66;;;28.20;86.05
20013;BME280;10167;42.852;23.042;2022-08-03T11:50:18;94920.34;;;27.96;86.88
20013;BME280;10167;42.852;23.042;2022-08-03T11:52:47;94924.50;;;27.65;84.42
20013;BME280;10167;42.852;23.042;2022-08-03T11:55:17;94919.97;;;27.69;85.87
20013;BME280;10167;42.852;23.042;2022-08-03T12:00:29;94915.72;;;27.96;84.08
20013;BME280;10167;42.852;23.042;2022-08-03T12:03:03;94917.00;;;28.42;78.13
20013;BME280;10167;42.852;23.042;2022-08-03T12:05:40;94926.78;;;29.22;76.79
20013;BME280;10167;42.852;23.042;2022-08-03T12:08:28;94914.97;;;29.49;80.52
20013;BME280;10167;42.852;23.042;2022-08-03T12:10:57;94908.78;;;30.07;75.58
20013;BME280;10167;42.852;23.042;2022-08-03T12:13:35;94911.28;;;31.22;70.64
20013;BME280;10167;42.852;23.042;2022-08-03T12:19:22;94911.38;;;32.86;58.02
20013;BME280;10167;42.852;23.042;2022-08-03T12:21:50;94910.38;;;33.05;58.15
20013;BME280;10167;42.852;23.042;2022-08-03T12:24:23;94908.44;;;32.68;63.36
20013;BME280;10167;42.852;23.042;2022-08-03T12:26:54;94904.09;;;31.97;66.06
20013;BME280;10167;42.852;23.042;2022-08-03T12:29:26;94898.19;;;31.35;71.38
20013;BME280;10167;42.852;23.042;2022-08-03T12:31:53;94902.81;;;30.85;61.66
20013;BME280;10167;42.852;23.042;2022-08-03T12:34:23;94899.13;;;30.74;62.66
20013;BME280;10167;42.852;23.042;2022-08-03T12:39:41;94906.41;;;30.05;72.88
20013;BME280;10167;42.852;23.042;2022-08-03T12:42:29;94907.16;;;29.32;76.89
20013;BME280;10167;42.852;23.042;2022-08-03T12:44:56;94909.44;;;29.14;77.79
20013;BME280;10167;42.852;23.042;2022-08-03T12:47:24;94917.06;;;28.46;80.16
20013;BME280;10167;42.852;23.042;2022-08-03T12:49:52;94907.31;;;27.89;82.39
20013;BME280;10167;42.852;23.042;2022-08-03T12:52:21;94908.00;;;27.58;89.54
20013;BME280;10167;42.852;23.042;2022-08-03T12:54:57;94903.28;;;27.19;93.84
20013;BME280;10167;42.852;23.042;2022-08-03T13:02:24;94902.00;;;26.22;100.00
20013;BME280;10167;42.852;23.042;2022-08-03T13:04:53;94903.16;;;26.00;100.00
20013;BME280;10167;42.852;23.042;2022-08-03T13:07:21;94897.91;;;25.83;100.00
20013;BME280;10167;42.852;23.042;2022-08-03T13:09:51;94895.63;;;25.73;100.00
20013;BME280;10167;42.852;23.042;2022-08-03T13:12:20;94894.13;;;25.76;100.00
20013;BME280;10167;42.852;23.042;2022-08-03T13:14:50;94887.84;;;25.63;100.00
20013;BME280;10167;42.852;23.042;2022-08-03T13:17:18;94891.16;;;25.48;100.00
20013;BME280;10167;42.852;23.042;2022-08-03T13:25:20;94899.00;;;25.20;100.00
20013;BME280;10167;42.852;23.042;2022-08-03T13:27:48;94900.09;;;25.19;100.00
20013;BME280;10167;42.852;23.042;2022-08-03T13:30:31;94891.72;;;25.12;100.00
20013;BME280;10167;42.852;23.042;2022-08-03T13:32:59;94898.31;;;25.02;100.00
20013;BME280;10167;42.852;23.042;2022-08-03T13:35:27;94901.13;;;25.06;100.00
20013;BME280;10167;42.852;23.042;2022-08-03T13:37:54;94900.38;;;25.05;100.00
20013;BME280;10167;42.852;23.042;2022-08-03T13:40:23;94902.28;;;25.05;100.00
20013;BME280;10167;42.852;23.042;2022-08-03T13:47:55;94894.56;;;25.15;100.00
20013;BME280;10167;42.852;23.042;2022-08-03T13:50:23;94897.69;;;25.26;100.00
20013;BME280;10167;42.852;23.042;2022-08-03T13:52:50;94896.81;;;25.34;100.00
20013;BME280;10167;42.852;23.042;2022-08-03T13:55:18;94894.31;;;25.29;100.00
20013;BME280;10167;42.852;23.042;2022-08-03T13:57:45;94892.50;;;25.12;100.00
20013;BME280;10167;42.852;23.042;2022-08-03T14:00:31;94888.38;;;25.06;100.00
20013;BME280;10167;42.852;23.042;2022-08-03T14:03:00;94893.25;;;24.83;100.00
20013;BME280;10167;42.852;23.042;2022-08-03T14:10:40;94912.06;;;24.42;100.00
20013;BME280;10167;42.852;23.042;2022-08-03T14:13:10;94917.69;;;24.28;100.00
20013;BME280;10167;42.852;23.042;2022-08-03T14:15:38;94915.97;;;24.23;100.00
20013;BME280;10167;42.852;23.042;2022-08-03T14:18:06;94926.78;;;24.23;100.00
20013;BME280;10167;42.852;23.042;2022-08-03T14:20:53;94935.69;;;23.98;100.00
20013;BME280;10167;42.852;23.042;2022-08-03T14:23:24;94926.00;;;23.71;100.00
20013;BME280;10167;42.852;23.042;2022-08-03T14:25:52;94921.72;;;23.62;100.00
20013;BME280;10167;42.852;23.042;2022-08-03T14:32:51;94909.91;;;23.32;100.00
20013;BME280;10167;42.852;23.042;2022-08-03T14:35:18;94911.63;;;23.19;100.00
20013;BME280;10167;42.852;23.042;2022-08-03T14:37:46;94902.72;;;23.01;100.00
20013;BME280;10167;42.852;23.042;2022-08-03T14:40:14;94894.91;;;23.00;100.00
20013;BME280;10167;42.852;23.042;2022-08-03T14:42:42;94899.03;;;22.89;100.00
20013;BME280;10167;42.852;23.042;2022-08-03T14:45:10;94889.63;;;22.86;100.00
20013;BME280;10167;42.852;23.042;2022-08-03T14:47:46;94894.25;;;22.86;100.00
20013;BME280;10167;42.852;23.042;2022-08-03T14:55:03;94881.22;;;22.88;100.00
20013;BME280;10167;42.852;23.042;2022-08-03T14:57:31;94895.91;;;22.64;100.00
20013;BME280;10167;42.852;23.042;2022-08-03T14:59:58;94901.00;;;22.35;100.00
20013;BME280;10167;42.852;23.042;2022-08-03T15:02:26;94901.63;;;22.32;100.00
20013;BME280;10167;42.852;23.042;2022-08-03T15:04:55;94887.09;;;22.50;100.00
20013;BME280;10167;42.852;23.042;2022-08-03T15:07:23;94876.19;;;22.55;100.00
20013;BME280;10167;42.852;23.042;2022-08-03T15:09:51;94872.50;;;22.51;100.00
20013;BME280;10167;42.852;23.042;2022-08-03T15:16:44;94872.34;;;22.17;100.00
20013;BME280;10167;42.852;23.042;2022-08-03T15:19:12;94877.31;;;22.23;100.00
20013;BME280;10167;42.852;23.042;2022-08-03T15:22:00;94873.59;;;22.11;100.00
20013;BME280;10167;42.852;23.042;2022-08-03T15:24:28;94871.72;;;22.11;100.00
20013;BME280;10167;42.852;23.042;2022-08-03T15:26:56;94869.13;;;22.06;100.00
20013;BME280;10167;42.852;23.042;2022-08-03T15:29:23;94862.28;;;22.00;100.00
20013;BME280;10167;42.852;23.042;2022-08-03T15:36:02;94872.84;;;21.96;100.00
20013;BME280;10167;42.852;23.042;2022-08-03T15:38:29;94863.38;;;21.99;100.00
20013;BME280;10167;42.852;23.042;2022-08-03T15:40:57;94858.69;;;22.13;100.00
20013;BME280;10167;42.852;23.042;2022-08-03T15:43:25;94864.44;;;22.20;100.00
20013;BME280;10167;42.852;23.042;2022-08-03T15:45:52;94860.00;;;22.24;100.00
20013;BME280;10167;42.852;23.042;2022-08-03T15:48:40;94865.47;;;22.33;100.00
20013;BME280;10167;42.852;23.042;2022-08-03T15:51:09;94869.00;;;22.42;100.00
20013;BME280;10167;42.852;23.042;2022-08-03T15:58:40;94871.66;;;22.33;100.00
20013;BME280;10167;42.852;23.042;2022-08-03T16:01:29;94877.19;;;22.37;100.00
20013;BME280;10167;42.852;23.042;2022-08-03T16:03:57;94874.56;;;22.45;100.00
20013;BME280;10167;42.852;23.042;2022-08-03T16:06:24;94881.41;;;22.52;100.00
20013;BME280;10167;42.852;23.042;2022-08-03T16:09:03;94874.00;;;22.74;100.00
20013;BME280;10167;42.852;23.042;2022-08-03T16:11:31;94875.03;;;22.78;100.00
20013;BME280;10167;42.852;23.042;2022-08-03T16:14:00;94871.22;;;22.97;100.00
20013;BME280;10167;42.852;23.042;2022-08-03T16:21:29;94880.63;;;23.25;100.00
20013;BME280;10167;42.852;23.042;2022-08-03T16:24:08;94886.88;;;23.34;100.00
20013;BME280;10167;42.852;23.042;2022-08-03T16:26:43;94882.09;;;23.40;100.00
20013;BME280;10167;42.852;23.042;2022-08-03T16:29:11;94881.47;;;23.43;100.00
20013;BME280;10167;42.852;23.042;2022-08-03T16:31:50;94880.34;;;23.44;100.00
20013;BME280;10167;42.852;23.042;2022-08-03T16:34:18;94888.94;;;23.46;100.00
20013;BME280;10167;42.852;23.042;2022-08-03T16:36:47;94883.06;;;23.44;100.00